Time;durP1;ratioP1;P1;durP2;ratioP2;P2;SDS_P1;SDS_P2;PMS_P1;PMS_P2;Temp;Humidity;BMP_temperature;BMP_pressure;BME280_temperature;BME280_humidity;BME280_pressure;Samples;Min_cycle;Max_cycle;Signal;HPM_P1;HPM_P2
2021/06/27 00:01:13;;;;;;;10.15;7.97;;;;;;;18.41;73.61;96338.78;5049822;28;20409;-76
2021/06/27 00:03:41;;;;;;;9.63;7.70;;;;;;;18.40;73.61;96347.44;5050436;28;20041;-77
2021/06/27 00:06:08;;;;;;;8.98;7.72;;;;;;;18.34;73.14;96335.94;5050008;28;20060;-75
2021/06/27 00:08:36;;;;;;;10.68;8.25;;;;;;;18.28;73.39;96328.34;5050332;28;20052;-77
2021/06/27 00:11:04;;;;;;;9.40;7.43;;;;;;;18.25;73.56;96324.34;5050090;28;20048;-77
2021/06/27 00:13:31;;;;;;;10.13;6.88;;;;;;;18.28;73.86;96331.91;5050393;28;20049;-75
2021/06/27 00:15:58;;;;;;;10.23;8.07;;;;;;;18.31;73.40;96331.16;5052420;28;20045;-75
2021/06/27 00:18:27;;;;;;;11.77;7.53;;;;;;;18.30;73.94;96331.53;5053648;28;20103;-76
2021/06/27 00:20:57;;;;;;;11.07;6.82;;;;;;;18.34;73.19;96330.41;5054011;28;20041;-78
2021/06/27 00:23:25;;;;;;;9.20;7.40;;;;;;;18.28;73.38;96331.91;5053583;28;20045;-75
2021/06/27 00:25:53;;;;;;;9.27;7.57;;;;;;;18.26;73.56;96334.22;5053868;28;20663;-75
2021/06/27 00:28:20;;;;;;;11.65;8.02;;;;;;;18.24;73.86;96329.06;5053448;28;20041;-75
2021/06/27 00:30:49;;;;;;;8.90;7.30;;;;;;;18.23;74.32;96338.50;5053734;28;20045;-75
2021/06/27 00:33:16;;;;;;;10.63;7.65;;;;;;;18.21;74.08;96334.53;5053168;28;20075;-76
2021/06/27 00:35:42;;;;;;;9.40;7.35;;;;;;;18.16;73.73;96340.34;5053661;28;20395;-75
2021/06/27 00:38:10;;;;;;;11.13;8.00;;;;;;;18.16;74.00;96340.34;5053267;28;20053;-77
2021/06/27 00:40:37;;;;;;;10.80;7.63;;;;;;;18.15;74.46;96330.47;5053688;28;20044;-77
2021/06/27 00:43:04;;;;;;;11.40;8.15;;;;;;;18.12;74.44;96332.03;5053202;28;20060;-75
2021/06/27 00:45:32;;;;;;;10.27;8.43;;;;;;;18.11;74.58;96329.63;5053651;28;20052;-77
2021/06/27 00:47:59;;;;;;;11.52;8.77;;;;;;;18.08;74.10;96325.66;5053400;28;20055;-75
2021/06/27 00:50:29;;;;;;;12.65;7.93;;;;;;;18.07;74.14;96328.78;5052879;28;20399;-75
2021/06/27 00:52:56;;;;;;;9.02;7.32;;;;;;;18.07;74.30;96317.75;5053393;28;20500;-76
2021/06/27 00:55:24;;;;;;;10.18;7.40;;;;;;;18.12;74.01;96325.72;5053141;28;20060;-75
2021/06/27 00:57:52;;;;;;;11.45;7.43;;;;;;;18.13;74.07;96321.78;5053364;28;20507;-75
2021/06/27 01:00:22;;;;;;;9.27;7.05;;;;;;;18.15;73.53;96322.22;5050195;28;20051;-75
2021/06/27 01:02:49;;;;;;;9.20;6.70;;;;;;;18.15;73.12;96319.47;5053160;28;20484;-75
2021/06/27 01:05:18;;;;;;;8.25;6.88;;;;;;;18.13;72.68;96319.84;5052838;28;20049;-75
2021/06/27 01:07:45;;;;;;;9.35;6.93;;;;;;;18.11;73.36;96324.09;5053056;28;20049;-76
2021/06/27 01:10:13;;;;;;;8.23;6.97;;;;;;;18.08;73.65;96327.63;5052314;28;20116;-76
2021/06/27 01:12:40;;;;;;;9.23;6.80;;;;;;;18.09;73.09;96321.72;5053179;28;20052;-76
2021/06/27 01:15:09;;;;;;;9.07;7.18;;;;;;;18.06;73.19;96327.97;5052611;28;20092;-76
2021/06/27 01:17:37;;;;;;;13.38;6.72;;;;;;;18.03;73.71;96322.41;5052878;28;20045;-75
2021/06/27 01:20:08;;;;;;;10.10;6.95;;;;;;;17.99;73.92;96314.84;5052451;28;20443;-77
2021/06/27 01:22:36;;;;;;;13.45;7.78;;;;;;;17.98;73.54;96316.03;5052990;28;20055;-75
2021/06/27 01:25:03;;;;;;;8.57;6.40;;;;;;;17.94;73.80;96309.66;5052562;28;20045;-75
2021/06/27 01:27:30;;;;;;;9.23;7.18;;;;;;;17.92;73.74;96312.00;5052356;28;20045;-77
2021/06/27 01:29:56;;;;;;;11.50;7.05;;;;;;;17.89;73.90;96311.91;5052266;28;20515;-75
2021/06/27 01:32:23;;;;;;;11.45;7.85;;;;;;;17.86;74.09;96307.94;5052423;28;20143;-75
2021/06/27 01:34:50;;;;;;;10.35;7.68;;;;;;;17.83;74.69;96308.66;5052597;28;20048;-76
2021/06/27 01:37:16;;;;;;;13.10;7.03;;;;;;;17.85;73.29;96305.53;5052008;28;20080;-75
2021/06/27 01:39:44;;;;;;;9.10;7.00;;;;;;;17.85;72.98;96311.84;5052463;28;20037;-77
2021/06/27 01:42:11;;;;;;;9.48;7.20;;;;;;;17.82;73.36;96307.09;5052117;28;20416;-75
2021/06/27 01:44:37;;;;;;;10.98;6.90;;;;;;;17.77;73.99;96321.16;5052314;28;20045;-76
2021/06/27 01:47:04;;;;;;;10.98;7.65;;;;;;;17.76;74.14;96322.31;5052086;28;20049;-75
2021/06/27 01:49:31;;;;;;;10.40;7.65;;;;;;;17.78;74.16;96313.69;5051904;28;20041;-77
2021/06/27 01:51:58;;;;;;;8.70;6.53;;;;;;;17.77;74.06;96310.13;5052336;28;20045;-76
2021/06/27 01:54:24;;;;;;;15.70;7.45;;;;;;;17.70;73.61;96310.00;5051729;28;20396;-75
2021/06/27 01:56:52;;;;;;;9.95;7.45;;;;;;;17.65;73.47;96313.03;5052188;28;20480;-76
2021/06/27 01:59:18;;;;;;;11.60;7.28;;;;;;;17.61;73.36;96312.16;5051441;28;20053;-76
2021/06/27 02:01:45;;;;;;;9.85;7.22;;;;;;;17.61;73.64;96309.41;5032340;28;20079;-76
2021/06/27 02:04:12;;;;;;;8.60;6.53;;;;;;;17.62;74.08;96311.78;5031691;28;20534;-76
2021/06/27 02:06:40;;;;;;;8.15;6.60;;;;;;;17.62;73.45;96313.75;5032188;28;20045;-76
2021/06/27 02:09:09;;;;;;;12.18;7.60;;;;;;;17.61;73.34;96318.47;5031563;28;20049;-75
2021/06/27 02:11:36;;;;;;;7.40;6.10;;;;;;;17.61;73.76;96317.69;5032052;28;20041;-76
2021/06/27 02:14:05;;;;;;;10.63;6.80;;;;;;;17.60;72.63;96321.59;5031573;28;20049;-75
2021/06/27 02:16:32;;;;;;;7.97;6.15;;;;;;;17.55;72.94;96321.88;5031676;28;20078;-75
2021/06/27 02:18:59;;;;;;;9.13;6.63;;;;;;;17.53;73.56;96316.72;5031775;28;20052;-76
2021/06/27 02:21:27;;;;;;;8.77;6.35;;;;;;;17.48;73.97;96325.28;5031444;28;20107;-76
2021/06/27 02:23:55;;;;;;;7.93;6.57;;;;;;;17.43;74.12;96317.31;5031714;28;20045;-76
2021/06/27 02:26:23;;;;;;;8.45;6.22;;;;;;;17.38;74.01;96315.69;5031327;28;20041;-76
2021/06/27 02:28:50;;;;;;;8.65;6.30;;;;;;;17.36;74.83;96323.47;5036648;28;20087;-76
2021/06/27 02:31:18;;;;;;;8.38;6.20;;;;;;;17.33;75.27;96313.22;5067216;28;20053;-76
2021/06/27 02:33:45;;;;;;;8.63;6.72;;;;;;;17.37;74.34;96314.06;5071378;28;20056;-76
2021/06/27 02:36:12;;;;;;;8.30;6.35;;;;;;;17.36;74.22;96312.47;5071025;28;20049;-76
2021/06/27 02:38:39;;;;;;;10.18;6.47;;;;;;;17.34;74.51;96314.81;5070639;28;20047;-75
2021/06/27 02:41:06;;;;;;;8.25;5.97;;;;;;;17.30;74.78;96311.16;5070968;28;20052;-76
2021/06/27 02:43:33;;;;;;;8.27;6.40;;;;;;;17.25;74.36;96322.47;5071088;28;20479;-75
2021/06/27 02:46:00;;;;;;;12.82;7.43;;;;;;;17.23;74.72;96311.03;5071310;28;20053;-75
2021/06/27 02:48:29;;;;;;;8.50;6.60;;;;;;;17.20;74.45;96311.75;5070691;28;20765;-75
2021/06/27 02:50:56;;;;;;;12.55;6.68;;;;;;;17.13;74.52;96314.38;5071121;28;20384;-75
2021/06/27 02:53:23;;;;;;;10.95;6.18;;;;;;;17.13;74.37;96306.13;5070956;28;20045;-77
2021/06/27 02:56:06;;;;;;;10.98;7.57;;;;;;;17.12;74.50;96313.56;5071119;28;20041;-77
2021/06/27 02:58:33;;;;;;;10.52;6.57;;;;;;;17.08;74.60;96306.41;5068161;28;20045;-75
2021/06/27 03:00:59;;;;;;;9.13;6.13;;;;;;;17.12;73.79;96318.25;5051049;28;20045;-76
2021/06/27 03:03:27;;;;;;;10.15;6.43;;;;;;;17.11;73.43;96311.94;5050521;28;20048;-75
2021/06/27 03:05:54;;;;;;;8.40;6.30;;;;;;;17.08;73.17;96311.91;5051163;28;20052;-75
2021/06/27 03:08:20;;;;;;;11.07;5.95;;;;;;;17.03;73.43;96320.44;5050592;28;20045;-75
2021/06/27 03:10:47;;;;;;;10.32;5.82;;;;;;;16.92;73.41;96321.00;5050977;28;20040;-76
2021/06/27 03:13:13;;;;;;;10.85;5.80;;;;;;;16.85;73.77;96325.53;5050495;28;20399;-75
2021/06/27 03:15:40;;;;;;;7.07;5.78;;;;;;;16.79;73.68;96322.25;5050910;28;20052;-75
2021/06/27 03:18:06;;;;;;;8.98;6.03;;;;;;;16.74;73.79;96322.53;5050623;28;20045;-75
2021/06/27 03:20:34;;;;;;;10.60;6.10;;;;;;;16.67;73.94;96319.63;5050857;28;20376;-74
2021/06/27 03:23:01;;;;;;;9.63;5.78;;;;;;;16.63;73.91;96318.72;5050950;28;20056;-76
2021/06/27 03:25:29;;;;;;;11.70;6.10;;;;;;;16.57;74.05;96320.16;5050525;28;20044;-75
2021/06/27 03:27:55;;;;;;;10.38;6.45;;;;;;;16.51;74.46;96319.63;5050906;28;20117;-75
2021/06/27 03:30:23;;;;;;;6.75;5.70;;;;;;;16.51;75.16;96319.63;5050060;28;20094;-74
2021/06/27 03:32:49;;;;;;;9.73;6.78;;;;;;;16.55;75.35;96322.44;5050753;28;20420;-76
2021/06/27 03:35:16;;;;;;;8.18;6.07;;;;;;;16.57;75.47;96326.47;5050433;28;20056;-75
2021/06/27 03:37:50;;;;;;;8.25;5.80;;;;;;;16.57;75.33;96325.66;5051010;28;20045;-75
2021/06/27 03:40:18;;;;;;;6.70;5.53;;;;;;;16.59;75.80;96318.63;5050490;28;20049;-75
2021/06/27 03:42:46;;;;;;;7.55;5.95;;;;;;;16.62;76.15;96317.13;5050874;28;20068;-77
2021/06/27 03:45:14;;;;;;;9.35;5.57;;;;;;;16.66;74.90;96318.03;5050255;28;20076;-75
2021/06/27 03:47:41;;;;;;;7.57;5.55;;;;;;;16.68;75.44;96310.19;5050455;28;20049;-74
2021/06/27 03:50:08;;;;;;;7.13;5.20;;;;;;;16.68;75.75;96319.25;5050922;28;20049;-75
2021/06/27 03:52:34;;;;;;;8.55;5.70;;;;;;;16.74;74.80;96311.53;5054654;28;20044;-75
2021/06/27 03:55:02;;;;;;;7.25;5.88;;;;;;;16.76;74.43;96317.50;5054532;28;20045;-74
2021/06/27 03:57:29;;;;;;;6.78;5.13;;;;;;;16.76;75.33;96323.00;5054298;28;20051;-76
2021/06/27 03:59:55;;;;;;;8.48;5.97;;;;;;;16.76;75.88;96317.50;5054191;28;20052;-76
2021/06/27 04:02:22;;;;;;;9.77;6.38;;;;;;;16.79;75.75;96307.72;5053733;28;20053;-76
2021/06/27 04:04:48;;;;;;;7.20;5.43;;;;;;;16.81;75.71;96308.97;5054500;28;20044;-75
2021/06/27 04:07:15;;;;;;;9.93;5.45;;;;;;;16.84;74.86;96301.94;5053781;28;20052;-75
2021/06/27 04:09:41;;;;;;;8.18;5.57;;;;;;;16.85;75.37;96298.81;5054286;28;20041;-75
2021/06/27 04:12:10;;;;;;;9.38;5.40;;;;;;;16.87;75.69;96293.78;5053738;28;20455;-75
2021/06/27 04:14:36;;;;;;;7.15;5.30;;;;;;;16.91;75.55;96291.09;5054126;28;20136;-76
2021/06/27 04:17:05;;;;;;;6.60;4.80;;;;;;;16.93;75.51;96289.59;5053613;28;20045;-75
2021/06/27 04:19:32;;;;;;;5.55;3.95;;;;;;;16.98;75.29;96296.75;5054175;28;20068;-76
2021/06/27 04:21:58;;;;;;;5.55;4.10;;;;;;;17.03;74.61;96292.94;5054012;28;20051;-75
2021/06/27 04:24:25;;;;;;;5.72;3.95;;;;;;;17.05;74.37;96294.16;5053429;28;20041;-75
2021/06/27 04:26:51;;;;;;;4.97;3.35;;;;;;;17.08;73.74;96289.88;5054018;28;20041;-75
2021/06/27 04:29:19;;;;;;;5.00;3.58;;;;;;;17.12;72.95;96290.72;5053193;28;20064;-75
2021/06/27 04:31:46;;;;;;;4.93;3.60;;;;;;;17.20;72.48;96295.25;5053624;28;20048;-76
2021/06/27 04:34:13;;;;;;;5.50;3.70;;;;;;;17.24;72.20;96287.84;5053284;28;20048;-77
2021/06/27 04:36:40;;;;;;;4.70;3.45;;;;;;;17.27;71.29;96291.81;5053808;28;20045;-75
2021/06/27 04:39:08;;;;;;;4.68;3.25;;;;;;;17.30;69.90;96291.91;5053092;28;20499;-75
2021/06/27 04:41:35;;;;;;;5.78;2.90;;;;;;;17.31;68.23;96293.50;5053787;28;20049;-75
2021/06/27 04:44:01;;;;;;;6.50;3.40;;;;;;;17.27;68.42;96289.88;5053565;28;20060;-76
2021/06/27 04:46:29;;;;;;;5.07;3.05;;;;;;;17.25;69.24;96294.94;5053425;28;20045;-75
2021/06/27 04:48:57;;;;;;;3.78;3.00;;;;;;;17.28;69.64;96291.47;5053271;28;20061;-77
2021/06/27 04:51:23;;;;;;;5.30;2.85;;;;;;;17.35;70.24;96290.81;5052729;28;20041;-76
2021/06/27 04:53:50;;;;;;;8.25;3.35;;;;;;;17.37;67.41;96297.53;5053194;28;20041;-76
2021/06/27 04:56:16;;;;;;;6.72;2.70;;;;;;;17.38;68.02;96290.91;5052837;28;20051;-76
2021/06/27 04:58:43;;;;;;;5.68;2.97;;;;;;;17.44;68.57;96289.44;5053169;28;20048;-76
2021/06/27 05:01:10;;;;;;;3.53;2.53;;;;;;;17.48;68.58;96289.50;5067611;28;20049;-76
2021/06/27 05:03:38;;;;;;;5.13;2.38;;;;;;;17.54;67.69;96285.31;5072555;28;20046;-76
2021/06/27 05:06:05;;;;;;;6.03;3.00;;;;;;;17.52;66.78;96286.81;5072693;28;20045;-75
2021/06/27 05:08:32;;;;;;;3.95;2.33;;;;;;;17.53;67.24;96282.91;5073084;28;20049;-75
2021/06/27 05:10:59;;;;;;;4.97;2.40;;;;;;;17.55;68.64;96286.91;5072836;28;20052;-75
2021/06/27 05:13:25;;;;;;;4.88;2.70;;;;;;;17.63;69.75;96282.31;5072523;28;20053;-75
2021/06/27 05:15:52;;;;;;;5.32;2.67;;;;;;;17.68;69.95;96280.03;5072729;28;20642;-75
2021/06/27 05:18:19;;;;;;;3.90;2.60;;;;;;;17.73;70.36;96274.25;5072481;28;20064;-75
2021/06/27 05:20:47;;;;;;;4.95;3.22;;;;;;;17.80;71.10;96270.88;5073061;28;20064;-76
2021/06/27 05:23:14;;;;;;;4.50;2.88;;;;;;;17.85;71.39;96267.78;5072446;28;20044;-77
2021/06/27 05:25:40;;;;;;;4.30;2.65;;;;;;;17.85;68.55;96251.25;5072839;28;20051;-77
2021/06/27 05:28:07;;;;;;;4.78;2.55;;;;;;;17.88;68.42;96256.03;5072241;28;20051;-76
2021/06/27 05:30:34;;;;;;;5.72;2.75;;;;;;;17.91;68.01;96271.84;5052998;28;20045;-77
2021/06/27 05:33:01;;;;;;;3.63;2.53;;;;;;;17.94;66.25;96271.09;5052828;28;20045;-77
2021/06/27 05:35:28;;;;;;;2.90;2.28;;;;;;;17.98;67.17;96276.66;5052468;28;20505;-76
2021/06/27 05:37:56;;;;;;;4.40;2.55;;;;;;;18.09;68.68;96282.34;5052376;28;20128;-76
2021/06/27 05:40:23;;;;;;;4.38;2.83;;;;;;;18.07;67.56;96279.97;5052285;28;20052;-75
2021/06/27 05:42:49;;;;;;;2.92;2.35;;;;;;;18.11;67.30;96282.78;5052558;28;20070;-76
2021/06/27 05:45:16;;;;;;;5.88;2.95;;;;;;;18.18;66.55;96280.16;5051894;28;20052;-76
2021/06/27 05:47:42;;;;;;;6.53;2.20;;;;;;;18.19;66.99;96279.78;5052308;28;20049;-75
2021/06/27 05:50:10;;;;;;;3.33;2.10;;;;;;;18.22;67.03;96289.28;5051947;28;20695;-75
2021/06/27 05:52:37;;;;;;;3.95;2.30;;;;;;;18.28;67.36;96296.06;5052221;28;20041;-76
2021/06/27 05:55:07;;;;;;;4.00;1.90;;;;;;;18.37;66.81;96299.34;5051830;28;20106;-75
2021/06/27 05:57:33;;;;;;;2.85;2.20;;;;;;;18.38;67.11;96294.66;5051778;28;20037;-75
2021/06/27 06:00:00;;;;;;;3.45;2.10;;;;;;;18.40;67.63;96293.09;5051984;28;20041;-75
2021/06/27 06:02:26;;;;;;;7.18;1.70;;;;;;;18.44;66.27;96291.19;5051675;28;20037;-76
2021/06/27 06:04:52;;;;;;;2.70;1.80;;;;;;;18.46;67.97;96279.78;5052113;28;20044;-75
2021/06/27 06:07:19;;;;;;;3.35;2.15;;;;;;;18.44;68.58;96273.88;5051486;28;20049;-75
2021/06/27 06:09:45;;;;;;;3.80;2.20;;;;;;;18.49;68.75;96276.31;5051872;28;20040;-75
2021/06/27 06:12:13;;;;;;;5.28;2.13;;;;;;;18.52;68.64;96279.09;5051387;28;20052;-76
2021/06/27 06:14:40;;;;;;;3.10;2.33;;;;;;;18.61;69.28;96280.81;5051658;28;20037;-76
2021/06/27 06:17:07;;;;;;;3.38;2.50;;;;;;;18.72;69.66;96281.78;5051317;28;20418;-75
2021/06/27 06:19:33;;;;;;;3.40;1.90;;;;;;;18.71;68.06;96280.19;5050369;28;20045;-76
2021/06/27 06:22:00;;;;;;;3.25;1.90;;;;;;;18.77;66.94;96286.97;5051699;28;20048;-75
2021/06/27 06:24:26;;;;;;;3.05;1.85;;;;;;;18.82;67.54;96292.19;5049946;28;20040;-75
2021/06/27 06:26:53;;;;;;;2.17;1.70;;;;;;;18.91;66.42;96300.19;5051024;28;20041;-75
2021/06/27 06:29:21;;;;;;;2.22;1.60;;;;;;;18.93;67.31;96297.84;5049671;28;20052;-76
2021/06/27 06:31:47;;;;;;;2.45;1.60;;;;;;;18.98;67.71;96297.50;5050846;28;20037;-77
2021/06/27 06:34:13;;;;;;;2.45;1.75;;;;;;;19.09;66.73;96294.91;5050139;28;20626;-76
2021/06/27 06:36:40;;;;;;;2.40;1.90;;;;;;;19.04;64.91;96288.53;5050503;28;20512;-76
2021/06/27 06:39:09;;;;;;;1.92;1.48;;;;;;;19.09;65.97;96295.69;5050496;28;20051;-75
2021/06/27 06:41:35;;;;;;;2.70;1.85;;;;;;;19.17;66.58;96291.84;5050190;28;20040;-75
2021/06/27 06:44:02;;;;;;;2.50;1.90;;;;;;;19.26;65.92;96295.13;5050831;28;20144;-76
2021/06/27 06:46:30;;;;;;;3.55;2.05;;;;;;;19.30;63.52;96297.91;5050293;28;20048;-75
2021/06/27 06:48:57;;;;;;;2.42;2.05;;;;;;;19.36;64.18;96304.69;5051177;28;20045;-75
2021/06/27 06:51:24;;;;;;;2.63;1.90;;;;;;;19.44;64.21;96306.38;5049784;28;20045;-76
2021/06/27 06:53:50;;;;;;;3.72;2.47;;;;;;;19.51;65.16;96300.94;5051109;28;20052;-77
2021/06/27 06:56:17;;;;;;;2.65;1.92;;;;;;;19.69;67.55;96294.84;5050419;28;20049;-76
2021/06/27 06:58:44;;;;;;;2.80;2.10;;;;;;;19.73;64.57;96295.66;5050411;28;20416;-76
2021/06/27 07:01:10;;;;;;;3.88;2.40;;;;;;;19.80;62.81;96296.56;5065223;28;20044;-76
2021/06/27 07:03:38;;;;;;;3.88;2.15;;;;;;;19.91;63.03;96298.63;5070223;28;20036;-76
2021/06/27 07:06:05;;;;;;;2.80;2.10;;;;;;;20.06;64.51;96298.38;5070362;28;20041;-75
2021/06/27 07:08:31;;;;;;;4.38;3.20;;;;;;;20.08;63.65;96301.53;5070083;28;20514;-77
2021/06/27 07:10:58;;;;;;;6.60;3.63;;;;;;;20.15;64.04;96306.38;5070772;28;20059;-75
2021/06/27 07:13:25;;;;;;;7.85;3.15;;;;;;;20.14;63.28;96304.75;5069492;28;20048;-76
2021/06/27 07:15:51;;;;;;;3.90;2.75;;;;;;;20.29;65.08;96302.91;5070888;28;20045;-76
2021/06/27 07:18:18;;;;;;;4.57;3.40;;;;;;;20.40;63.23;96305.78;5069360;28;20045;-76
2021/06/27 07:20:46;;;;;;;4.60;2.63;;;;;;;20.43;63.54;96300.28;5070816;28;20127;-76
2021/06/27 07:23:12;;;;;;;5.68;3.33;;;;;;;20.47;64.22;96301.13;5070283;28;20051;-76
2021/06/27 07:25:39;;;;;;;4.60;3.55;;;;;;;20.57;66.15;96305.94;5072424;28;20048;-76
2021/06/27 07:28:05;;;;;;;4.95;3.70;;;;;;;20.66;66.24;96297.28;5074423;28;20045;-76
2021/06/27 07:30:32;;;;;;;5.53;4.20;;;;;;;20.71;65.59;96301.69;5064847;28;20519;-78
2021/06/27 07:32:58;;;;;;;8.48;4.85;;;;;;;20.78;66.03;96290.69;5074397;28;20414;-76
2021/06/27 07:35:25;;;;;;;5.53;4.22;;;;;;;20.84;65.73;96289.91;5073202;28;20060;-76
2021/06/27 07:37:53;;;;;;;6.25;4.60;;;;;;;20.94;65.95;96285.63;5074591;28;20070;-76
2021/06/27 07:40:20;;;;;;;7.45;5.63;;;;;;;21.03;65.23;96288.81;5073253;28;20048;-76
2021/06/27 07:42:49;;;;;;;7.72;5.00;;;;;;;21.18;66.32;96286.13;5074739;28;20127;-76
2021/06/27 07:45:16;;;;;;;8.30;5.20;;;;;;;21.33;68.28;96282.28;5073138;28;20041;-76
2021/06/27 07:47:42;;;;;;;7.97;5.10;;;;;;;21.43;65.70;96275.19;5074015;28;20051;-76
2021/06/27 07:50:10;;;;;;;8.35;4.85;;;;;;;21.47;65.07;96278.78;5073393;28;20052;-76
2021/06/27 07:52:38;;;;;;;6.82;5.57;;;;;;;21.59;65.07;96279.19;5073860;28;20040;-76
2021/06/27 07:55:08;;;;;;;7.28;5.15;;;;;;;21.67;65.57;96282.78;5073520;28;20131;-76
2021/06/27 07:57:35;;;;;;;8.30;6.30;;;;;;;21.69;64.33;96279.63;5073333;28;20045;-76
2021/06/27 08:00:02;;;;;;;6.95;5.78;;;;;;;21.78;64.58;96277.28;5064777;28;20385;-75
2021/06/27 08:02:28;;;;;;;6.85;5.28;;;;;;;21.84;62.95;96267.38;5093225;28;20044;-78
2021/06/27 08:04:54;;;;;;;7.60;5.70;;;;;;;21.87;62.99;96263.81;5094379;28;20040;-76
2021/06/27 08:07:21;;;;;;;7.63;6.22;;;;;;;21.93;64.19;96273.34;5092821;28;20045;-75
2021/06/27 08:09:47;;;;;;;8.07;5.22;;;;;;;21.94;63.83;96269.38;5094348;28;20398;-75
2021/06/27 08:12:15;;;;;;;5.05;4.20;;;;;;;22.03;61.43;96267.03;5092703;28;20379;-76
2021/06/27 08:14:42;;;;;;;8.77;4.63;;;;;;;22.21;63.77;96255.97;5093761;28;20513;-79
2021/06/27 08:17:08;;;;;;;6.13;5.35;;;;;;;22.57;59.42;96256.72;5092961;28;20044;-75
2021/06/27 08:19:35;;;;;;;6.72;4.82;;;;;;;23.57;59.97;96261.97;5093423;28;20044;-75
2021/06/27 08:22:01;;;;;;;7.78;3.17;;;;;;;24.88;51.22;96258.63;5093763;28;20067;-75
2021/06/27 08:24:28;;;;;;;4.03;3.17;;;;;;;25.60;47.34;96259.41;5092852;28;20044;-76
2021/06/27 08:26:55;;;;;;;4.15;3.15;;;;;;;26.52;48.40;96250.91;5093797;28;20036;-75
2021/06/27 08:29:23;;;;;;;4.65;3.30;;;;;;;26.97;46.00;96244.91;5082586;28;20114;-76
2021/06/27 08:31:50;;;;;;;5.43;3.00;;;;;;;27.74;45.87;96247.38;5093308;28;20044;-75
2021/06/27 08:34:16;;;;;;;6.32;2.90;;;;;;;28.51;46.29;96245.19;5091805;28;20047;-75
2021/06/27 08:36:45;;;;;;;4.15;3.00;;;;;;;28.97;40.69;96251.63;5092415;28;20048;-76
2021/06/27 08:39:12;;;;;;;3.75;2.70;;;;;;;29.41;40.67;96249.22;5092310;28;20036;-76
2021/06/27 08:41:38;;;;;;;4.38;3.00;;;;;;;29.49;37.41;96245.75;5093251;28;20431;-75
2021/06/27 08:44:06;;;;;;;4.05;3.20;;;;;;;29.47;39.88;96242.59;5091620;28;20048;-75
2021/06/27 08:46:38;;;;;;;4.65;3.03;;;;;;;29.94;39.63;96246.84;5092908;28;20044;-77
2021/06/27 08:49:04;;;;;;;4.45;2.95;;;;;;;30.04;41.32;96240.13;5092500;28;20422;-76
2021/06/27 08:51:39;;;;;;;4.32;2.90;;;;;;;30.21;40.83;96238.78;5092568;28;20045;-76
2021/06/27 08:54:06;;;;;;;3.92;2.83;;;;;;;30.00;39.32;96239.44;5092945;28;20051;-76
2021/06/27 08:56:32;;;;;;;3.78;3.03;;;;;;;29.87;39.58;96239.44;5092233;28;20044;-75
2021/06/27 08:58:59;;;;;;;4.00;3.40;;;;;;;29.72;39.89;96239.09;5086552;28;20045;-75
2021/06/27 09:01:25;;;;;;;6.70;3.00;;;;;;;29.55;42.80;96244.00;5089038;28;20040;-75
2021/06/27 09:03:55;;;;;;;5.03;3.20;;;;;;;29.21;42.38;96233.34;5074978;28;20063;-76
2021/06/27 09:06:26;;;;;;;5.38;3.25;;;;;;;28.53;43.92;96237.91;5091605;28;20044;-76
2021/06/27 09:09:13;;;;;;;5.03;3.33;;;;;;;28.07;43.82;96233.41;5092436;28;20051;-75
2021/06/27 09:11:41;;;;;;;4.97;3.60;;;;;;;27.78;45.47;96231.28;5092751;28;20036;-76
2021/06/27 09:14:27;;;;;;;3.30;3.00;;;;;;;27.66;50.22;96231.13;5091410;28;20047;-76
2021/06/27 09:17:09;;;;;;;3.75;2.85;;;;;;;27.53;49.27;96223.41;5093044;28;20055;-75
2021/06/27 09:20:09;;;;;;;5.15;3.03;;;;;;;27.61;46.57;96226.03;5091936;28;20044;-76
2021/06/27 09:22:37;;;;;;;6.47;3.60;;;;;;;27.44;47.73;96230.81;5091892;28;20040;-75
2021/06/27 09:25:22;;;;;;;5.18;3.58;;;;;;;27.38;46.00;96227.72;5091937;28;20498;-76
2021/06/27 09:28:00;;;;;;;3.95;3.47;;;;;;;27.12;47.16;96232.25;5091680;28;20044;-76
2021/06/27 09:30:28;;;;;;;5.05;4.05;;;;;;;27.00;45.07;96238.47;5083221;28;20046;-77
2021/06/27 09:32:57;;;;;;;4.90;3.63;;;;;;;26.84;51.83;96232.78;5091647;28;20042;-76
2021/06/27 09:35:46;;;;;;;4.93;3.40;;;;;;;26.77;50.70;96230.91;5091696;28;20047;-78
2021/06/27 09:38:26;;;;;;;5.45;3.60;;;;;;;26.79;48.99;96232.06;5091572;28;20060;-77
2021/06/27 09:40:55;;;;;;;6.80;3.67;;;;;;;26.84;49.45;96227.97;5091407;28;20052;-78
2021/06/27 09:43:22;;;;;;;6.90;4.00;;;;;;;26.87;49.07;96223.53;5091987;28;20058;-77
2021/06/27 09:45:52;;;;;;;5.68;3.42;;;;;;;26.87;48.54;96223.53;5091264;28;20043;-76
2021/06/27 09:48:19;;;;;;;4.07;3.05;;;;;;;26.88;48.37;96216.72;5091498;28;20127;-75
2021/06/27 09:50:47;;;;;;;3.80;3.00;;;;;;;26.99;48.32;96222.88;5091267;28;20044;-75
2021/06/27 09:53:33;;;;;;;3.58;3.00;;;;;;;27.16;45.80;96223.81;5091498;28;20048;-76
2021/06/27 09:56:01;;;;;;;4.25;2.83;;;;;;;27.15;47.62;96225.81;5091805;28;20414;-75
2021/06/27 09:58:28;;;;;;;3.75;2.90;;;;;;;27.15;44.91;96214.63;5088864;28;20036;-75
2021/06/27 10:00:57;;;;;;;3.28;2.40;;;;;;;27.08;47.42;96220.34;5084938;28;20045;-76
2021/06/27 10:03:23;;;;;;;5.07;3.45;;;;;;;27.17;49.56;96206.59;5091107;28;20067;-75
2021/06/27 10:05:51;;;;;;;4.15;2.90;;;;;;;27.33;48.79;96219.06;5091964;28;20032;-75
2021/06/27 10:08:28;;;;;;;3.58;3.25;;;;;;;27.39;43.58;96217.34;5090451;28;20410;-76
2021/06/27 10:11:07;;;;;;;5.60;3.20;;;;;;;27.38;47.71;96218.56;5091837;28;20036;-76
2021/06/27 10:13:34;;;;;;;3.75;2.92;;;;;;;27.38;45.47;96224.16;5090961;28;20051;-75
2021/06/27 10:16:01;;;;;;;4.65;3.25;;;;;;;27.45;46.28;96221.19;5091321;28;20048;-78
2021/06/27 10:18:30;;;;;;;3.95;2.85;;;;;;;27.37;45.33;96219.78;5090972;28;20407;-75
2021/06/27 10:20:58;;;;;;;4.18;3.63;;;;;;;27.36;46.47;96215.41;5090940;28;20036;-77
2021/06/27 10:23:25;;;;;;;4.00;3.33;;;;;;;27.48;46.04;96220.34;5090791;28;20040;-75
2021/06/27 10:25:53;;;;;;;3.47;3.08;;;;;;;27.46;45.69;96217.16;5090563;28;20040;-77
2021/06/27 10:28:21;;;;;;;4.80;3.00;;;;;;;27.49;47.73;96207.94;5090271;28;20047;-78
2021/06/27 10:30:47;;;;;;;6.47;3.08;;;;;;;27.62;50.24;96208.84;5070039;28;20495;-77
2021/06/27 10:33:14;;;;;;;2.97;2.58;;;;;;;27.71;47.14;96214.66;5070664;28;20052;-77
2021/06/27 10:35:48;;;;;;;3.35;2.80;;;;;;;27.73;46.72;96209.44;5070175;28;20051;-77
2021/06/27 10:38:22;;;;;;;4.93;3.10;;;;;;;27.80;44.49;96212.03;5070254;28;20048;-77
2021/06/27 10:40:51;;;;;;;17.30;3.08;;;;;;;27.86;42.08;96205.94;5070645;28;20068;-78
2021/06/27 10:43:17;;;;;;;5.60;3.53;;;;;;;27.77;44.39;96203.72;5069907;28;20055;-77
2021/06/27 10:46:01;;;;;;;4.15;3.00;;;;;;;27.62;43.99;96191.28;5071021;28;20044;-78
2021/06/27 10:48:39;;;;;;;6.20;3.03;;;;;;;27.54;45.79;96197.03;5069737;28;20132;-77
2021/06/27 10:51:09;;;;;;;4.03;2.83;;;;;;;27.59;43.88;96198.53;5070651;28;20044;-77
2021/06/27 10:54:14;;;;;;;6.22;3.17;;;;;;;27.63;47.64;96204.81;5069800;28;20057;-77
2021/06/27 10:56:59;;;;;;;5.95;2.80;;;;;;;27.69;44.87;96191.91;5063868;28;20055;-77
2021/06/27 10:59:59;;;;;;;3.67;2.80;;;;;;;27.75;47.07;96197.78;5068123;28;20064;-78
2021/06/27 11:02:36;;;;;;;4.20;2.83;;;;;;;27.62;46.24;96197.66;5069603;28;20128;-75
2021/06/27 11:05:43;;;;;;;4.32;3.17;;;;;;;27.54;44.61;96196.22;5070108;28;20080;-75
2021/06/27 11:08:14;;;;;;;4.78;3.00;;;;;;;27.47;45.50;96196.41;5070182;28;20072;-76
2021/06/27 11:10:43;;;;;;;5.00;3.22;;;;;;;27.43;44.81;96206.88;5069930;28;20044;-77
2021/06/27 11:13:14;;;;;;;6.63;3.70;;;;;;;27.44;46.53;96202.84;5070257;28;20048;-75
2021/06/27 11:16:10;;;;;;;3.90;2.80;;;;;;;27.47;48.17;96190.81;5052117;28;20040;-75
2021/06/27 11:18:38;;;;;;;4.05;3.40;;;;;;;27.51;42.32;96191.50;5070207;28;20040;-78
2021/06/27 11:21:13;;;;;;;4.47;2.85;;;;;;;27.53;46.88;96194.66;5051882;28;20052;-76
2021/06/27 11:23:54;;;;;;;5.78;3.25;;;;;;;27.49;46.93;96189.13;5069789;28;20044;-75
2021/06/27 11:26:53;;;;;;;4.85;2.67;;;;;;;27.46;45.44;96186.41;5070294;28;20040;-76
2021/06/27 11:29:39;;;;;;;5.57;3.20;;;;;;;27.47;45.19;96188.00;5068887;28;20049;-77
2021/06/27 11:32:44;;;;;;;7.43;3.30;;;;;;;27.46;45.82;96181.63;5069697;28;20052;-76
2021/06/27 11:35:12;;;;;;;4.50;2.75;;;;;;;27.50;45.71;96187.13;5067093;28;20097;-78
2021/06/27 11:37:45;;;;;;;4.13;2.85;;;;;;;27.46;44.37;96190.03;5069567;28;20048;-76
2021/06/27 11:40:13;;;;;;;3.63;2.88;;;;;;;27.52;44.42;96181.91;5069990;28;20048;-78